Time;durP1;ratioP1;P1;durP2;ratioP2;P2;SDS_P1;SDS_P2;PMS_P1;PMS_P2;Temp;Humidity;BMP_temperature;BMP_pressure;BME280_temperature;BME280_humidity;BME280_pressure;Samples;Min_cycle;Max_cycle;Signal;HPM_P1;HPM_P2
2023/05/07 00:01:31;;;;;;;;;;;;;;;19.42;59.50;101528.89;2297599;76;51515;-71
2023/05/07 00:04:37;;;;;;;;;;;;;;;19.39;59.60;101527.89;2291039;77;22372;-71
2023/05/07 00:07:37;;;;;;;;;;;;;;;19.39;59.64;101525.20;2278296;77;22377;-71
2023/05/07 00:10:38;;;;;;;;;;;;;;;19.36;59.67;101533.92;2292054;77;51457;-71
2023/05/07 00:13:40;;;;;;;;;;;;;;;19.38;59.55;101535.62;2278303;77;51439;-71
2023/05/07 00:16:41;;;;;;;;;;;;;;;19.36;59.61;101533.92;2278116;77;51574;-73
2023/05/07 00:19:43;;;;;;;;;;;;;;;19.35;59.62;101534.11;2278521;77;51514;-73
2023/05/07 00:22:45;;;;;;;;;;;;;;;19.36;59.59;101523.19;2278428;77;51575;-73
2023/05/07 00:25:46;;;;;;;;;;;;;;;19.35;59.75;101527.39;2278222;77;51421;-73
2023/05/07 00:28:48;;;;;;;;;;;;;;;19.33;59.79;101534.26;2269164;76;51696;-74
2023/05/07 00:31:50;;;;;;;;;;;;;;;19.34;59.66;101529.25;2292953;77;51538;-74
2023/05/07 00:34:52;;;;;;;;;;;;;;;19.33;59.66;101526.20;2292570;76;50455;-73
2023/05/07 00:37:53;;;;;;;;;;;;;;;19.34;59.68;101525.22;2292455;76;50260;-73
2023/05/07 00:40:55;;;;;;;;;;;;;;;19.35;59.66;101520.17;2310847;76;51666;-74
2023/05/07 00:43:57;;;;;;;;;;;;;;;19.34;59.64;101520.33;2292334;77;51472;-73
2023/05/07 00:46:58;;;;;;;;;;;;;;;19.32;59.67;101515.66;2292999;77;51443;-73
2023/05/07 00:50:00;;;;;;;;;;;;;;;19.31;59.68;101529.55;2265162;77;52391;-72
2023/05/07 00:53:02;;;;;;;;;;;;;;;19.31;59.63;101525.53;2314229;76;52670;-73
2023/05/07 00:56:05;;;;;;;;;;;;;;;19.32;59.69;101529.08;2322680;76;50367;-73
2023/05/07 00:59:06;;;;;;;;;;;;;;;19.29;59.78;101524.87;2270204;77;50687;-73
2023/05/07 01:02:08;;;;;;;;;;;;;;;19.30;59.78;101532.42;2301646;77;51328;-73
2023/05/07 01:05:11;;;;;;;;;;;;;;;19.28;59.74;101525.86;2266417;77;51010;-73
2023/05/07 01:08:13;;;;;;;;;;;;;;;19.28;59.76;101527.20;2302858;77;51555;-73
2023/05/07 01:11:14;;;;;;;;;;;;;;;19.29;59.75;101525.36;2302765;77;50262;-73
2023/05/07 01:14:16;;;;;;;;;;;;;;;19.27;59.82;101521.52;2302504;77;50276;-73
2023/05/07 01:17:18;;;;;;;;;;;;;;;19.26;59.86;101526.53;2302379;77;51632;-73
2023/05/07 01:20:19;;;;;;;;;;;;;;;19.28;59.79;101532.58;2265439;77;50008;-73
2023/05/07 01:23:21;;;;;;;;;;;;;;;19.27;59.78;101526.88;2265471;77;50265;-74
2023/05/07 01:26:23;;;;;;;;;;;;;;;19.28;59.80;101536.60;2302319;76;50392;-73
2023/05/07 01:29:25;;;;;;;;;;;;;;;19.27;59.84;101532.76;2278175;77;52561;-73
2023/05/07 01:32:31;;;;;;;;;;;;;;;19.26;59.79;101527.87;2302407;77;51574;-72
2023/05/07 01:35:37;;;;;;;;;;;;;;;19.27;59.82;101524.71;2302142;76;50409;-72
2023/05/07 01:38:38;;;;;;;;;;;;;;;19.25;59.91;101533.42;2302433;77;50845;-72
2023/05/07 01:41:40;;;;;;;;;;;;;;;19.25;59.88;101530.73;2303843;76;50782;-73
2023/05/07 01:44:42;;;;;;;;;;;;;;;19.21;59.93;101530.21;2302295;77;51429;-73
2023/05/07 01:47:43;;;;;;;;;;;;;;;19.21;59.94;101534.23;2303789;76;52330;-72
2023/05/07 01:50:45;;;;;;;;;;;;;;;19.22;59.94;101530.56;2327942;76;51461;-72
2023/05/07 01:53:50;;;;;;;;;;;;;;;19.23;59.96;101538.11;2269148;76;50861;-72
2023/05/07 01:56:50;;;;;;;;;;;;;;;19.23;59.84;101536.77;2314590;76;22431;-73
2023/05/07 01:59:51;;;;;;;;;;;;;;;19.21;59.82;101543.62;2334093;76;50049;-73
2023/05/07 02:02:53;;;;;;;;;;;;;;;19.21;59.87;101545.48;2338681;76;50620;-73
2023/05/07 02:05:54;;;;;;;;;;;;;;;19.21;59.89;101544.14;2307798;76;51468;-73
2023/05/07 02:08:56;;;;;;;;;;;;;;;19.20;59.95;101543.81;2308222;76;53749;-73
2023/05/07 02:11:57;;;;;;;;;;;;;;;19.21;59.80;101553.02;2340336;76;51474;-73
2023/05/07 02:14:59;;;;;;;;;;;;;;;19.20;59.88;101546.49;2340088;76;51567;-73
2023/05/07 02:18:02;;;;;;;;;;;;;;;19.22;59.84;101541.81;2308061;76;52469;-72
2023/05/07 02:21:03;;;;;;;;;;;;;;;19.18;59.91;101553.35;2340243;76;50301;-72
2023/05/07 02:24:05;;;;;;;;;;;;;;;19.18;59.91;101550.67;2339893;76;50228;-71
2023/05/07 02:27:07;;;;;;;;;;;;;;;19.19;59.94;101551.50;2313556;76;51508;-72
2023/05/07 02:30:09;;;;;;;;;;;;;;;19.16;60.03;101555.36;2233891;77;51647;-72
2023/05/07 02:33:12;;;;;;;;;;;;;;;19.14;60.02;101551.52;2258479;77;50670;-72
2023/05/07 02:36:13;;;;;;;;;;;;;;;19.15;60.01;101557.72;2292534;77;51547;-72
2023/05/07 02:39:16;;;;;;;;;;;;;;;19.13;60.09;101555.69;2258119;77;50644;-73
2023/05/07 02:42:17;;;;;;;;;;;;;;;19.14;60.03;101556.05;2233990;77;51731;-72
2023/05/07 02:45:19;;;;;;;;;;;;;;;19.12;60.13;101558.05;2258163;77;50275;-72
2023/05/07 02:48:20;;;;;;;;;;;;;;;19.12;60.11;101554.02;2258157;77;50080;-72
2023/05/07 02:51:22;;;;;;;;;;;;;;;19.12;60.08;101555.36;2264082;77;50726;-72
2023/05/07 02:54:24;;;;;;;;;;;;;;;19.12;60.14;101558.05;2300989;76;50231;-72
2023/05/07 02:57:26;;;;;;;;;;;;;;;19.11;60.12;101553.19;2301208;77;52037;-72
2023/05/07 03:00:27;;;;;;;;;;;;;;;19.12;60.13;101568.78;2301409;77;50372;-72
2023/05/07 03:03:29;;;;;;;;;;;;;;;19.12;60.15;101567.44;2301323;77;51555;-72
2023/05/07 03:06:30;;;;;;;;;;;;;;;19.12;60.00;101570.95;2239575;77;51201;-72
2023/05/07 03:09:32;;;;;;;;;;;;;;;19.13;60.08;101573.96;2264579;77;50591;-73
2023/05/07 03:12:34;;;;;;;;;;;;;;;19.12;60.16;101576.83;2264546;77;51550;-71
2023/05/07 03:15:36;;;;;;;;;;;;;;;19.12;60.28;101570.12;2301028;77;50119;-74
2023/05/07 03:18:37;;;;;;;;;;;;;;;19.11;60.28;101573.78;2239853;77;49847;-73
2023/05/07 03:21:39;;;;;;;;;;;;;;;19.09;60.36;101575.31;2264621;77;50094;-72
2023/05/07 03:24:41;;;;;;;;;;;;;;;19.12;60.27;101579.51;2304270;76;50681;-72
2023/05/07 03:27:42;;;;;;;;;;;;;;;19.12;60.12;101580.34;2279131;77;51846;-73
2023/05/07 03:30:44;;;;;;;;;;;;;;;19.11;60.09;101581.36;2265499;77;52544;-73
2023/05/07 03:33:52;;;;;;;;;;;;;;;19.12;60.12;101580.34;2265742;77;51569;-73
2023/05/07 03:36:54;;;;;;;;;;;;;;;19.10;60.11;101585.03;2301268;77;51482;-73
2023/05/07 03:39:55;;;;;;;;;;;;;;;19.10;60.12;101586.36;2265632;77;50482;-72
2023/05/07 03:42:57;;;;;;;;;;;;;;;19.09;60.21;101582.52;2265775;77;51446;-73
2023/05/07 03:45:58;;;;;;;;;;;;;;;19.08;60.24;101587.03;2301028;77;51392;-73
2023/05/07 03:49:00;;;;;;;;;;;;;;;19.10;60.16;101587.70;2265706;77;51551;-73
2023/05/07 03:52:02;;;;;;;;;;;;;;;19.10;60.16;101598.44;2287212;77;50612;-72
2023/05/07 03:55:03;;;;;;;;;;;;;;;19.10;60.15;101600.28;2272173;76;51643;-73
2023/05/07 03:58:05;;;;;;;;;;;;;;;19.08;60.15;101604.46;2287163;78;50261;-72
2023/05/07 04:01:07;;;;;;;;;;;;;;;19.08;60.15;101608.48;2287252;76;50333;-73
2023/05/07 04:04:08;;;;;;;;;;;;;;;19.08;60.09;101603.63;2287073;78;51571;-73
2023/05/07 04:07:10;;;;;;;;;;;;;;;19.09;60.09;101602.64;2272721;78;52299;-72
2023/05/07 04:10:13;;;;;;;;;;;;;;;19.08;60.03;101603.63;2287150;78;51496;-73
2023/05/07 04:13:14;;;;;;;;;;;;;;;19.07;60.06;101601.95;2298047;77;50277;-73
2023/05/07 04:16:16;;;;;;;;;;;;;;;19.07;60.06;101605.98;2286715;77;50422;-73
2023/05/07 04:19:18;;;;;;;;;;;;;;;19.07;60.02;101608.67;2272608;78;51694;-73
2023/05/07 04:22:19;;;;;;;;;;;;;;;19.05;60.10;101610.16;2287189;78;51450;-73
2023/05/07 04:25:21;;;;;;;;;;;;;;;19.06;59.98;101615.02;2298976;76;50571;-72
2023/05/07 04:28:23;;;;;;;;;;;;;;;19.05;59.97;101613.34;2287815;76;50304;-72
2023/05/07 04:31:24;;;;;;;;;;;;;;;19.03;60.05;101610.81;2272747;78;51127;-72
2023/05/07 04:34:26;;;;;;;;;;;;;;;19.04;59.99;101613.86;2298076;76;51623;-72
2023/05/07 04:37:28;;;;;;;;;;;;;;;19.04;60.00;101619.22;2298489;77;51389;-72
2023/05/07 04:40:29;;;;;;;;;;;;;;;19.05;60.01;101622.73;2298561;77;52301;-71
2023/05/07 04:43:31;;;;;;;;;;;;;;;19.05;59.98;101625.42;2273098;76;52499;-72
2023/05/07 04:46:33;;;;;;;;;;;;;;;19.03;59.98;101628.76;2287421;78;51544;-73
2023/05/07 04:49:34;;;;;;;;;;;;;;;19.03;60.01;101636.80;2293001;76;51500;-74
2023/05/07 04:52:36;;;;;;;;;;;;;;;19.04;59.97;101639.84;2259667;77;51476;-77
2023/05/07 04:55:37;;;;;;;;;;;;;;;19.02;60.13;101636.48;2250293;76;50777;-74
2023/05/07 04:58:39;;;;;;;;;;;;;;;19.03;59.94;101638.14;2331609;76;51429;-74
2023/05/07 05:01:41;;;;;;;;;;;;;;;19.02;57.91;101641.84;2297495;76;51537;-74
2023/05/07 05:04:43;;;;;;;;;;;;;;;18.95;56.38;101642.14;2331647;76;50719;-74
2023/05/07 05:07:44;;;;;;;;;;;;;;;18.88;54.42;101648.64;2297443;76;52579;-74
2023/05/07 05:10:48;;;;;;;;;;;;;;;18.79;53.88;101654.47;2331979;76;51515;-74
2023/05/07 05:13:49;;;;;;;;;;;;;;;18.74;52.96;101651.91;2298313;76;22377;-73
2023/05/07 05:16:50;;;;;;;;;;;;;;;18.74;54.72;101650.05;2332106;76;50412;-73
2023/05/07 05:19:52;;;;;;;;;;;;;;;18.77;55.53;101649.77;2312718;76;51588;-74
2023/05/07 05:22:54;;;;;;;;;;;;;;;18.80;55.62;101649.94;2335274;76;50641;-74
2023/05/07 05:25:58;;;;;;;;;;;;;;;18.82;55.71;101660.02;2296244;76;50733;-73
2023/05/07 05:29:00;;;;;;;;;;;;;;;18.83;55.89;101659.87;2299970;76;50783;-75
2023/05/07 05:32:01;;;;;;;;;;;;;;;18.83;55.91;101659.00;2260078;77;50955;-73
2023/05/07 05:35:03;;;;;;;;;;;;;;;18.83;55.89;101655.84;2295707;77;52324;-74
2023/05/07 05:38:05;;;;;;;;;;;;;;;18.82;55.98;101662.19;2293111;77;51528;-74
2023/05/07 05:41:06;;;;;;;;;;;;;;;18.81;55.83;101659.19;2258519;77;51427;-73
2023/05/07 05:44:08;;;;;;;;;;;;;;;18.78;55.81;101651.46;2258639;77;51427;-73
2023/05/07 05:47:10;;;;;;;;;;;;;;;18.78;55.76;101654.14;2309144;76;50401;-74
2023/05/07 05:50:11;;;;;;;;;;;;;;;18.81;55.79;101666.39;2296007;76;50635;-73
2023/05/07 05:53:13;;;;;;;;;;;;;;;18.79;55.75;101669.22;2295720;76;51438;-74
2023/05/07 05:56:14;;;;;;;;;;;;;;;18.77;56.05;101667.19;2289106;77;50119;-72
2023/05/07 05:59:16;;;;;;;;;;;;;;;18.79;56.02;101666.54;2287374;78;51421;-72
2023/05/07 06:02:17;;;;;;;;;;;;;;;18.79;56.06;101669.22;2287564;78;50691;-74
2023/05/07 06:05:19;;;;;;;;;;;;;;;18.82;56.18;101669.41;2287232;78;50250;-74
2023/05/07 06:08:21;;;;;;;;;;;;;;;18.84;56.17;101673.60;2259998;78;50310;-73
2023/05/07 06:11:22;;;;;;;;;;;;;;;18.80;56.45;101672.23;2287424;78;49976;-74
2023/05/07 06:14:24;;;;;;;;;;;;;;;18.84;56.40;101671.43;2287300;78;50481;-74
2023/05/07 06:17:25;;;;;;;;;;;;;;;18.83;56.52;101677.30;2260291;78;51563;-73
2023/05/07 06:20:27;;;;;;;;;;;;;;;18.87;56.45;101680.48;2235432;78;52248;-74
2023/05/07 06:23:28;;;;;;;;;;;;;;;18.86;56.46;101680.16;2287425;78;51611;-74
2023/05/07 06:26:30;;;;;;;;;;;;;;;18.87;56.50;101688.53;2301030;76;51491;-74
2023/05/07 06:29:33;;;;;;;;;;;;;;;18.87;56.43;101681.83;2299342;76;51461;-73
2023/05/07 06:32:34;;;;;;;;;;;;;;;18.88;56.39;101684.36;2299696;76;50652;-73
2023/05/07 06:35:36;;;;;;;;;;;;;;;18.85;56.47;101682.48;2299292;76;50661;-74
2023/05/07 06:38:38;;;;;;;;;;;;;;;18.88;56.48;101699.11;2299427;76;51586;-74
2023/05/07 06:41:39;;;;;;;;;;;;;;;18.88;56.42;101700.45;2299321;76;51393;-74
2023/05/07 06:44:41;;;;;;;;;;;;;;;18.88;56.46;101701.80;2273767;76;52339;-74
2023/05/07 06:47:42;;;;;;;;;;;;;;;18.88;56.46;101701.80;2301780;76;50312;-74
2023/05/07 06:50:44;;;;;;;;;;;;;;;18.90;56.39;101701.62;2297491;76;50308;-73
2023/05/07 06:53:45;;;;;;;;;;;;;;;18.89;56.50;101712.84;2295746;76;51411;-73
2023/05/07 06:56:47;;;;;;;;;;;;;;;18.91;56.52;101716.73;2264402;78;51150;-73
2023/05/07 06:59:49;;;;;;;;;;;;;;;18.96;56.71;101710.86;2261659;78;50140;-73
2023/05/07 07:02:50;;;;;;;;;;;;;;;18.95;56.64;101719.92;2279413;76;50581;-72
2023/05/07 07:05:53;;;;;;;;;;;;;;;18.95;56.60;101722.09;2286879;78;50640;-73
2023/05/07 07:08:54;;;;;;;;;;;;;;;18.92;56.69;101724.59;2274774;76;52422;-73
2023/05/07 07:11:56;;;;;;;;;;;;;;;18.92;56.74;101721.08;2291640;76;52171;-72
2023/05/07 07:14:57;;;;;;;;;;;;;;;18.99;56.51;101709.23;2286922;78;50240;-73
2023/05/07 07:17:59;;;;;;;;;;;;;;;18.99;56.82;101711.91;2287441;76;50372;-73
2023/05/07 07:21:00;;;;;;;;;;;;;;;19.10;56.56;101711.11;2309653;76;50311;-73
2023/05/07 07:24:02;;;;;;;;;;;;;;;19.12;56.67;101719.01;2305983;76;50233;-74
2023/05/07 07:27:04;;;;;;;;;;;;;;;19.15;56.34;101714.16;2272683;76;50668;-73
2023/05/07 07:30:06;;;;;;;;;;;;;;;19.14;56.61;101715.16;2299167;77;51258;-74
2023/05/07 07:33:08;;;;;;;;;;;;;;;19.15;56.34;101721.36;2272867;78;50912;-74
2023/05/07 07:36:09;;;;;;;;;;;;;;;19.18;56.36;101720.20;2286916;78;51551;-73
2023/05/07 07:39:11;;;;;;;;;;;;;;;19.17;57.11;101716.69;2287374;78;50210;-75
2023/05/07 07:42:13;;;;;;;;;;;;;;;19.15;57.17;101711.97;2298332;77;51409;-74
2023/05/07 07:45:14;;;;;;;;;;;;;;;19.13;57.17;101706.76;2287692;78;51440;-75
2023/05/07 07:48:16;;;;;;;;;;;;;;;19.17;57.00;101708.64;2298665;77;50639;-75
2023/05/07 07:51:18;;;;;;;;;;;;;;;19.17;56.96;101707.30;2298579;76;52482;-74
2023/05/07 07:54:19;;;;;;;;;;;;;;;19.24;56.99;101700.29;2298326;77;50533;-73
2023/05/07 07:57:21;;;;;;;;;;;;;;;19.26;56.83;101708.99;2265976;76;51664;-74
2023/05/07 08:00:22;;;;;;;;;;;;;;;19.28;56.90;101711.02;2314570;76;51526;-73
2023/05/07 08:03:24;;;;;;;;;;;;;;;19.29;56.94;101710.03;2267132;78;50623;-73
2023/05/07 08:06:26;;;;;;;;;;;;;;;19.31;56.96;101713.38;2295062;76;50348;-72
2023/05/07 08:09:28;;;;;;;;;;;;;;;19.32;56.98;101709.70;2274274;76;52384;-73
2023/05/07 08:12:29;;;;;;;;;;;;;;;19.29;56.94;101713.20;2290996;76;50703;-74
2023/05/07 08:15:31;;;;;;;;;;;;;;;19.27;56.86;101716.56;2287527;76;51539;-74
2023/05/07 08:18:33;;;;;;;;;;;;;;;19.27;56.98;101709.35;2287255;77;51461;-74
2023/05/07 08:21:34;;;;;;;;;;;;;;;19.29;56.96;101707.36;2287092;76;52348;-73
2023/05/07 08:24:36;;;;;;;;;;;;;;;19.30;56.97;101705.50;2286758;78;51568;-74
2023/05/07 08:27:38;;;;;;;;;;;;;;;19.31;56.87;101700.47;2287008;76;50720;-74
2023/05/07 08:30:39;;;;;;;;;;;;;;;19.28;56.88;101716.39;2287079;78;51216;-74
2023/05/07 08:33:41;;;;;;;;;;;;;;;19.30;57.01;101716.23;2310120;76;52516;-75
2023/05/07 08:36:42;;;;;;;;;;;;;;;19.30;56.90;101715.73;2281152;77;51555;-75
2023/05/07 08:39:44;;;;;;;;;;;;;;;19.32;56.73;101718.27;2267599;76;51449;-75
2023/05/07 08:42:46;;;;;;;;;;;;;;;19.32;56.88;101725.80;2298490;76;51536;-73
2023/05/07 08:45:47;;;;;;;;;;;;;;;19.31;56.84;101724.61;2322917;76;52270;-73
2023/05/07 08:48:49;;;;;;;;;;;;;;;19.29;56.77;101726.14;2286792;77;51578;-73
2023/05/07 08:51:51;;;;;;;;;;;;;;;19.30;56.98;101722.44;2294364;76;50348;-73
2023/05/07 08:54:52;;;;;;;;;;;;;;;19.31;56.71;101713.38;2304404;76;51515;-74
2023/05/07 08:57:54;;;;;;;;;;;;;;;19.30;56.81;101724.28;2283701;77;52312;-74
2023/05/07 09:00:56;;;;;;;;;;;;;;;19.30;56.91;101729.66;2300818;76;50358;-73
2023/05/07 09:03:57;;;;;;;;;;;;;;;19.27;57.01;101718.74;2301685;76;49936;-73
2023/05/07 09:07:05;;;;;;;;;;;;;;;19.30;56.80;101722.95;2267017;78;50630;-74
2023/05/07 09:10:04;;;;;;;;;;;;;;;19.29;56.74;101727.48;2304816;76;22813;-73
2023/05/07 09:13:05;;;;;;;;;;;;;;;19.31;56.77;101732.16;2290941;77;51439;-74
2023/05/07 09:16:11;;;;;;;;;;;;;;;19.31;56.80;101733.50;2250539;77;51702;-73
2023/05/07 09:19:12;;;;;;;;;;;;;;;19.32;56.77;101731.69;2303712;76;50320;-75
2023/05/07 09:22:14;;;;;;;;;;;;;;;19.33;56.60;101726.13;2261404;77;51154;-75
2023/05/07 09:25:16;;;;;;;;;;;;;;;19.30;56.71;101737.20;2293367;77;50268;-76
2023/05/07 09:28:17;;;;;;;;;;;;;;;19.29;56.81;101739.55;2272144;77;50253;-73
2023/05/07 09:31:19;;;;;;;;;;;;;;;19.29;56.77;101739.55;2226050;79;50383;-74
2023/05/07 09:34:20;;;;;;;;;;;;;;;19.29;56.74;101736.88;2250439;77;51650;-74
2023/05/07 09:37:22;;;;;;;;;;;;;;;19.29;56.82;101727.48;2288739;77;51463;-75
2023/05/07 09:40:24;;;;;;;;;;;;;;;19.31;56.82;101728.64;2262160;77;51421;-73
2023/05/07 09:43:26;;;;;;;;;;;;;;;19.27;56.72;101725.45;2291685;76;50763;-73
2023/05/07 09:46:35;;;;;;;;;;;;;;;19.24;56.83;101728.47;2273545;78;51005;-74
2023/05/07 09:49:36;;;;;;;;;;;;;;;19.22;56.89;101734.48;2311235;77;22247;-74
2023/05/07 09:52:37;;;;;;;;;;;;;;;19.25;56.75;101742.72;2302854;76;51633;-73
2023/05/07 09:55:39;;;;;;;;;;;;;;;19.23;56.82;101740.18;2313301;77;51517;-73
2023/05/07 09:58:41;;;;;;;;;;;;;;;19.22;57.05;101747.90;2327287;75;52574;-75
2023/05/07 10:01:43;;;;;;;;;;;;;;;19.22;56.95;101738.51;2313887;76;51445;-75
2023/05/07 10:04:45;;;;;;;;;;;;;;;19.26;56.97;101746.56;2325603;75;50720;-74
2023/05/07 10:07:46;;;;;;;;;;;;;;;19.28;57.07;101751.78;2349276;75;50381;-75
2023/05/07 10:10:48;;;;;;;;;;;;;;;19.28;56.94;101737.85;2288714;77;52268;-74
2023/05/07 10:13:49;;;;;;;;;;;;;;;19.29;57.13;101736.88;2322321;75;50277;-75
2023/05/07 10:16:51;;;;;;;;;;;;;;;19.27;58.54;101738.87;2313860;77;50435;-75
2023/05/07 10:19:53;;;;;;;;;;;;;;;19.29;59.11;101741.38;2313909;76;50747;-74
2023/05/07 10:22:54;;;;;;;;;;;;;;;19.31;59.51;101742.06;2314017;75;52572;-74
2023/05/07 10:25:56;;;;;;;;;;;;;;;19.33;59.80;101746.77;2322423;75;51491;-74
2023/05/07 10:29:02;;;;;;;;;;;;;;;19.31;60.03;101744.23;2317959;75;51534;-74
2023/05/07 10:32:08;;;;;;;;;;;;;;;19.33;59.75;101750.80;2313692;75;50455;-75
2023/05/07 10:35:12;;;;;;;;;;;;;;;19.34;59.76;101751.13;2302184;75;51723;-74
2023/05/07 10:38:13;;;;;;;;;;;;;;;19.34;59.76;101745.75;2311431;75;50697;-75
2023/05/07 10:41:16;;;;;;;;;;;;;;;19.34;59.72;101747.09;2313549;77;51452;-75
2023/05/07 10:44:28;;;;;;;;;;;;;;;19.36;59.25;101744.59;2313553;77;50262;-75
2023/05/07 10:47:30;;;;;;;;;;;;;;;19.38;59.15;101750.31;2280872;75;51713;-75
2023/05/07 10:50:31;;;;;;;;;;;;;;;19.38;59.06;101744.45;2318634;75;49979;-74
2023/05/07 10:53:33;;;;;;;;;;;;;;;19.36;59.06;101747.27;2315735;75;51604;-75
2023/05/07 10:56:34;;;;;;;;;;;;;;;19.35;59.08;101746.95;2315357;75;50257;-74
2023/05/07 10:59:41;;;;;;;;;;;;;;;19.35;58.78;101748.80;2301394;75;52319;-75
2023/05/07 11:02:41;;;;;;;;;;;;;;;19.38;58.61;101744.95;2361449;75;22318;-75
2023/05/07 11:05:42;;;;;;;;;;;;;;;19.33;58.96;101753.48;2331511;75;50826;-75
2023/05/07 11:08:54;;;;;;;;;;;;;;;19.28;59.25;101749.93;2361942;75;50385;-75
2023/05/07 11:11:55;;;;;;;;;;;;;;;19.29;58.95;101744.92;2329227;75;51711;-74
2023/05/07 11:14:57;;;;;;;;;;;;;;;19.31;59.17;101748.26;2329320;75;51400;-75
2023/05/07 11:17:59;;;;;;;;;;;;;;;19.31;59.03;101738.87;2362207;75;50314;-75
2023/05/07 11:21:01;;;;;;;;;;;;;;;19.34;58.89;101745.28;2362030;75;51517;-74
2023/05/07 11:24:03;;;;;;;;;;;;;;;19.36;58.49;101736.54;2320894;75;50417;-75
2023/05/07 11:27:05;;;;;;;;;;;;;;;19.35;58.41;101728.16;2322435;75;51583;-76
2023/05/07 11:30:09;;;;;;;;;;;;;;;19.34;59.05;101731.00;2353363;75;51556;-76
2023/05/07 11:33:10;;;;;;;;;;;;;;;19.38;59.55;101726.16;2319253;75;22295;-75
2023/05/07 11:36:12;;;;;;;;;;;;;;;19.38;59.49;101723.48;2318030;75;51736;-74
2023/05/07 11:39:30;;;;;;;;;;;;;;;19.38;59.21;101720.80;2353249;75;50301;-75
2023/05/07 11:42:35;;;;;;;;;;;;;;;19.39;59.31;101723.30;2353423;75;51553;-74
2023/05/07 11:45:37;;;;;;;;;;;;;;;19.39;59.43;101719.78;2353499;75;50244;-76
2023/05/07 11:48:38;;;;;;;;;;;;;;;19.36;59.66;101719.09;2318593;75;51634;-76
2023/05/07 11:51:41;;;;;;;;;;;;;;;19.38;59.43;101718.11;2353893;75;51616;-76
2023/05/07 11:54:45;;;;;;;;;;;;;;;19.35;59.58;101726.82;2336911;75;50772;-75
2023/05/07 11:57:46;;;;;;;;;;;;;;;19.34;59.64;101727.84;2309803;76;50439;-74
2023/05/07 12:00:52;;;;;;;;;;;;;;;19.34;59.47;101730.52;2241483;77;52482;-75
2023/05/07 12:03:54;;;;;;;;;;;;;;;19.60;58.84;101728.26;2301086;77;50339;-73
2023/05/07 12:06:56;;;;;;;;;;;;;;;19.70;58.54;101713.36;2301826;77;50185;-76
2023/05/07 12:09:57;;;;;;;;;;;;;;;19.66;58.51;101723.56;2266140;77;49921;-72
2023/05/07 12:12:59;;;;;;;;;;;;;;;19.77;58.36;101717.91;2265960;77;51670;-77
2023/05/07 12:16:03;;;;;;;;;;;;;;;20.08;57.62;101710.56;2266168;77;51446;-76
2023/05/07 12:19:04;;;;;;;;;;;;;;;19.92;57.93;101721.30;2302391;77;22259;-76
2023/05/07 12:22:06;;;;;;;;;;;;;;;19.78;58.46;101723.63;2301951;77;51655;-76
2023/05/07 12:25:08;;;;;;;;;;;;;;;19.66;59.01;101726.76;2301859;77;50431;-77
2023/05/07 12:28:11;;;;;;;;;;;;;;;19.59;58.95;101727.91;2264342;77;51453;-77
2023/05/07 12:31:12;;;;;;;;;;;;;;;19.56;59.19;101725.55;2301783;77;50782;-77
2023/05/07 12:34:14;;;;;;;;;;;;;;;19.48;59.57;101724.19;2266103;77;51427;-76
2023/05/07 12:37:15;;;;;;;;;;;;;;;19.51;59.13;101731.41;2302037;77;50415;-76
2023/05/07 12:40:17;;;;;;;;;;;;;;;19.56;59.02;101733.60;2266244;77;51492;-76
2023/05/07 12:43:19;;;;;;;;;;;;;;;19.58;59.65;101727.58;2266077;77;51388;-76
2023/05/07 12:46:20;;;;;;;;;;;;;;;19.58;59.98;101719.02;2266008;77;50636;-76
2023/05/07 12:49:23;;;;;;;;;;;;;;;19.62;60.48;101718.68;2302153;77;50781;-71
2023/05/07 12:52:25;;;;;;;;;;;;;;;19.90;60.27;101732.70;2265819;77;52442;-72
2023/05/07 12:55:26;;;;;;;;;;;;;;;19.89;60.17;101725.66;2301440;76;51553;-70
2023/05/07 12:58:29;;;;;;;;;;;;;;;19.85;60.06;101717.08;2314844;76;50729;-75
2023/05/07 13:01:31;;;;;;;;;;;;;;;19.74;60.35;101719.58;2301358;77;50659;-77
2023/05/07 13:04:33;;;;;;;;;;;;;;;19.68;61.13;101719.39;2265540;77;51562;-76
2023/05/07 13:07:34;;;;;;;;;;;;;;;19.67;60.69;101726.61;2302515;77;50276;-76
2023/05/07 13:10:36;;;;;;;;;;;;;;;19.63;60.56;101730.61;2302603;77;50706;-76
2023/05/07 13:13:38;;;;;;;;;;;;;;;19.62;60.42;101734.28;2302570;77;51481;-75
2023/05/07 13:16:40;;;;;;;;;;;;;;;19.61;60.06;101727.24;2267073;77;51771;-75
2023/05/07 13:19:41;;;;;;;;;;;;;;;19.58;60.20;101732.44;2265676;77;50640;-76
2023/05/07 13:22:43;;;;;;;;;;;;;;;19.56;59.87;101733.60;2265752;77;51436;-76
2023/05/07 13:25:45;;;;;;;;;;;;;;;19.55;60.11;101731.42;2265920;77;50448;-76
2023/05/07 13:28:46;;;;;;;;;;;;;;;19.53;59.99;101725.37;2272412;76;52155;-76
2023/05/07 13:31:48;;;;;;;;;;;;;;;19.54;59.91;101726.21;2305933;76;50850;-76
2023/05/07 13:34:50;;;;;;;;;;;;;;;19.51;59.91;101725.20;2305513;76;50688;-75
2023/05/07 13:37:52;;;;;;;;;;;;;;;19.49;59.82;101728.03;2342742;76;51430;-75
2023/05/07 13:40:53;;;;;;;;;;;;;;;19.47;59.81;101726.03;2280356;76;51205;-76
2023/05/07 13:43:55;;;;;;;;;;;;;;;19.48;59.78;101726.88;2305640;76;50623;-76
2023/05/07 13:46:56;;;;;;;;;;;;;;;19.47;59.73;101726.03;2342740;76;51499;-76
2023/05/07 13:49:58;;;;;;;;;;;;;;;19.47;59.63;101722.02;2342757;76;51470;-76
2023/05/07 13:52:59;;;;;;;;;;;;;;;19.45;59.71;101721.84;2305637;76;51487;-76
2023/05/07 13:56:04;;;;;;;;;;;;;;;19.42;59.75;101738.23;2281390;76;51932;-76
2023/05/07 13:59:05;;;;;;;;;;;;;;;19.47;59.51;101734.56;2314229;76;23142;-76
2023/05/07 14:02:06;;;;;;;;;;;;;;;19.49;59.40;101727.20;2317930;76;53630;-76
2023/05/07 14:05:09;;;;;;;;;;;;;;;19.49;59.34;101726.69;2317987;76;52342;-76
2023/05/07 14:08:12;;;;;;;;;;;;;;;19.50;59.25;101728.90;2314153;77;50436;-76
2023/05/07 14:11:14;;;;;;;;;;;;;;;19.55;59.09;101722.54;2314197;77;51646;-76
2023/05/07 14:14:16;;;;;;;;;;;;;;;19.55;59.04;101719.34;2314624;77;50755;-76
2023/05/07 14:17:17;;;;;;;;;;;;;;;19.58;58.83;101724.89;2314764;77;51405;-76
2023/05/07 14:20:19;;;;;;;;;;;;;;;19.57;59.14;101725.88;2314814;77;50658;-75
2023/05/07 14:23:26;;;;;;;;;;;;;;;19.56;59.19;101716.16;2319023;76;50262;-76
2023/05/07 14:26:24;;;;;;;;;;;;;;;19.53;59.27;101717.83;2282276;76;22390;-76
2023/05/07 14:29:25;;;;;;;;;;;;;;;19.53;59.14;101715.14;2275536;76;50825;-76
2023/05/07 14:32:27;;;;;;;;;;;;;;;19.53;59.26;101708.44;2254604;78;51744;-75
2023/05/07 14:35:29;;;;;;;;;;;;;;;19.55;59.18;101706.43;2254734;78;49959;-76
2023/05/07 14:38:32;;;;;;;;;;;;;;;19.56;59.19;101707.59;2275771;78;50400;-77
2023/05/07 14:41:34;;;;;;;;;;;;;;;19.57;59.18;101711.11;2255294;78;22535;-76
2023/05/07 14:44:36;;;;;;;;;;;;;;;19.58;59.12;101704.75;2254732;78;50760;-77
2023/05/07 14:47:37;;;;;;;;;;;;;;;19.59;59.16;101699.71;2254525;78;50039;-77
2023/05/07 14:50:39;;;;;;;;;;;;;;;19.61;59.15;101703.08;2275664;78;51609;-75
2023/05/07 14:53:41;;;;;;;;;;;;;;;19.62;59.04;101704.75;2254339;77;50243;-76
2023/05/07 14:56:43;;;;;;;;;;;;;;;19.63;59.09;101707.79;2312331;76;51537;-75
2023/05/07 14:59:44;;;;;;;;;;;;;;;19.59;59.18;101707.26;2302115;77;51421;-76
2023/05/07 15:02:46;;;;;;;;;;;;;;;19.60;59.12;101710.81;2302466;77;51314;-76
2023/05/07 15:05:47;;;;;;;;;;;;;;;19.58;59.18;101708.78;2278307;77;51779;-76
2023/05/07 15:08:49;;;;;;;;;;;;;;;19.60;59.02;101720.20;2302744;77;50100;-76
2023/05/07 15:11:51;;;;;;;;;;;;;;;19.58;59.12;101723.04;2304028;76;50396;-76
2023/05/07 15:14:52;;;;;;;;;;;;;;;19.59;59.01;101727.91;2302083;77;50743;-76
2023/05/07 15:17:54;;;;;;;;;;;;;;;19.56;59.04;101716.16;2278584;77;52405;-76
2023/05/07 15:20:57;;;;;;;;;;;;;;;19.51;59.14;101713.95;2301959;77;50381;-76
2023/05/07 15:23:58;;;;;;;;;;;;;;;19.50;59.14;101722.19;2301716;76;50300;-76
2023/05/07 15:27:02;;;;;;;;;;;;;;;19.50;59.07;101721.68;2279026;76;50696;-76
2023/05/07 15:30:03;;;;;;;;;;;;;;;19.48;59.13;101723.68;2266965;77;22975;-75
2023/05/07 15:33:05;;;;;;;;;;;;;;;19.50;59.00;101728.39;2266449;77;51631;-76